sensor_id;sensor_type;location;lat;lon;timestamp;temperature;humidity
65470;DHT22;52067;50.710;14.492;2022-12-10T00:01:19;2.09;84.09
65470;DHT22;52067;50.710;14.492;2022-12-10T00:03:45;2.07;84.30
65470;DHT22;52067;50.710;14.492;2022-12-10T00:06:14;2.12;84.24
65470;DHT22;52067;50.710;14.492;2022-12-10T00:08:40;2.09;84.26
65470;DHT22;52067;50.710;14.492;2022-12-10T00:11:08;1.81;84.96
65470;DHT22;52067;50.710;14.492;2022-12-10T00:13:35;1.49;87.01
65470;DHT22;52067;50.710;14.492;2022-12-10T00:16:05;1.56;86.29
65470;DHT22;52067;50.710;14.492;2022-12-10T00:18:32;1.47;86.31
65470;DHT22;52067;50.710;14.492;2022-12-10T00:20:57;1.51;86.95
65470;DHT22;52067;50.710;14.492;2022-12-10T00:23:23;1.78;86.31
65470;DHT22;52067;50.710;14.492;2022-12-10T00:25:49;1.93;85.59
65470;DHT22;52067;50.710;14.492;2022-12-10T00:28:14;1.89;85.91
65470;DHT22;52067;50.710;14.492;2022-12-10T00:30:39;2.05;85.33
65470;DHT22;52067;50.710;14.492;2022-12-10T00:33:05;2.16;84.66
65470;DHT22;52067;50.710;14.492;2022-12-10T00:35:30;2.21;84.36
65470;DHT22;52067;50.710;14.492;2022-12-10T00:37:56;2.08;83.95
65470;DHT22;52067;50.710;14.492;2022-12-10T00:40:22;2.15;84.32
65470;DHT22;52067;50.710;14.492;2022-12-10T00:42:47;2.15;84.12
65470;DHT22;52067;50.710;14.492;2022-12-10T00:45:13;2.19;83.82
65470;DHT22;52067;50.710;14.492;2022-12-10T00:47:38;2.24;84.24
65470;DHT22;52067;50.710;14.492;2022-12-10T00:50:03;2.30;84.05
65470;DHT22;52067;50.710;14.492;2022-12-10T00:52:29;1.73;86.47
65470;DHT22;52067;50.710;14.492;2022-12-10T00:54:54;1.85;86.03
65470;DHT22;52067;50.710;14.492;2022-12-10T00:57:20;1.59;86.27
65470;DHT22;52067;50.710;14.492;2022-12-10T00:59:45;1.54;87.05
65470;DHT22;52067;50.710;14.492;2022-12-10T01:02:10;1.78;86.84
65470;DHT22;52067;50.710;14.492;2022-12-10T01:04:36;1.67;86.94
65470;DHT22;52067;50.710;14.492;2022-12-10T01:07:04;1.53;87.44
65470;DHT22;52067;50.710;14.492;2022-12-10T01:09:30;1.60;87.54
65470;DHT22;52067;50.710;14.492;2022-12-10T01:11:57;1.67;87.01
65470;DHT22;52067;50.710;14.492;2022-12-10T01:14:26;1.53;86.75
65470;DHT22;52067;50.710;14.492;2022-12-10T01:16:57;1.53;87.11
65470;DHT22;52067;50.710;14.492;2022-12-10T01:19:22;1.49;86.91
65470;DHT22;52067;50.710;14.492;2022-12-10T01:21:52;1.39;87.15
65470;DHT22;52067;50.710;14.492;2022-12-10T01:24:18;1.44;87.04
65470;DHT22;52067;50.710;14.492;2022-12-10T01:26:43;1.35;87.29
65470;DHT22;52067;50.710;14.492;2022-12-10T01:29:10;1.20;87.40
65470;DHT22;52067;50.710;14.492;2022-12-10T01:31:37;1.32;87.40
65470;DHT22;52067;50.710;14.492;2022-12-10T01:34:03;1.23;87.18
65470;DHT22;52067;50.710;14.492;2022-12-10T01:36:35;1.30;87.21
65470;DHT22;52067;50.710;14.492;2022-12-10T01:39:03;1.32;87.35
65470;DHT22;52067;50.710;14.492;2022-12-10T01:41:33;1.30;87.35
65470;DHT22;52067;50.710;14.492;2022-12-10T01:46:49;1.00;87.92
65470;DHT22;52067;50.710;14.492;2022-12-10T01:49:17;1.06;88.40
65470;DHT22;52067;50.710;14.492;2022-12-10T01:51:44;1.10;88.22
65470;DHT22;52067;50.710;14.492;2022-12-10T01:54:16;1.10;88.04
65470;DHT22;52067;50.710;14.492;2022-12-10T01:56:45;1.19;87.93
65470;DHT22;52067;50.710;14.492;2022-12-10T01:59:11;1.26;87.91
65470;DHT22;52067;50.710;14.492;2022-12-10T02:02:04;1.22;87.28
65470;DHT22;52067;50.710;14.492;2022-12-10T02:10:20;1.06;88.22
65470;DHT22;52067;50.710;14.492;2022-12-10T02:12:54;1.16;87.92
65470;DHT22;52067;50.710;14.492;2022-12-10T02:15:26;1.13;87.90
65470;DHT22;52067;50.710;14.492;2022-12-10T02:17:55;1.28;87.58
65470;DHT22;52067;50.710;14.492;2022-12-10T02:23:36;0.99;88.46
65470;DHT22;52067;50.710;14.492;2022-12-10T02:31:25;1.15;87.73
65470;DHT22;52067;50.710;14.492;2022-12-10T02:33:55;1.30;87.36
65470;DHT22;52067;50.710;14.492;2022-12-10T02:36:22;1.23;86.71
65470;DHT22;52067;50.710;14.492;2022-12-10T02:38:50;1.25;86.96
65470;DHT22;52067;50.710;14.492;2022-12-10T02:41:21;1.23;87.72
65470;DHT22;52067;50.710;14.492;2022-12-10T02:43:50;1.19;87.32
65470;DHT22;52067;50.710;14.492;2022-12-10T02:46:17;1.05;87.32
65470;DHT22;52067;50.710;14.492;2022-12-10T02:48:42;1.12;87.52
65470;DHT22;52067;50.710;14.492;2022-12-10T02:51:09;1.08;87.88
65470;DHT22;52067;50.710;14.492;2022-12-10T02:53:41;1.19;87.15
65470;DHT22;52067;50.710;14.492;2022-12-10T02:56:14;1.09;88.00
65470;DHT22;52067;50.710;14.492;2022-12-10T03:01:39;1.03;88.25
65470;DHT22;52067;50.710;14.492;2022-12-10T03:04:56;0.98;88.17
65470;DHT22;52067;50.710;14.492;2022-12-10T03:07:03;0.98;88.04
65470;DHT22;52067;50.710;14.492;2022-12-10T03:09:38;1.23;87.71
65470;DHT22;52067;50.710;14.492;2022-12-10T03:12:17;1.20;87.38
65470;DHT22;52067;50.710;14.492;2022-12-10T03:14:45;1.18;87.51
65470;DHT22;52067;50.710;14.492;2022-12-10T03:17:11;1.23;87.51
65470;DHT22;52067;50.710;14.492;2022-12-10T03:19:43;1.32;87.60
65470;DHT22;52067;50.710;14.492;2022-12-10T03:22:12;1.35;87.09
65470;DHT22;52067;50.710;14.492;2022-12-10T03:24:40;1.67;86.68
65470;DHT22;52067;50.710;14.492;2022-12-10T03:27:06;1.53;86.35
65470;DHT22;52067;50.710;14.492;2022-12-10T03:29:50;1.33;86.63
65470;DHT22;52067;50.710;14.492;2022-12-10T03:32:16;1.22;87.18
65470;DHT22;52067;50.710;14.492;2022-12-10T03:34:44;1.37;87.05
65470;DHT22;52067;50.710;14.492;2022-12-10T03:37:11;1.46;87.22
65470;DHT22;52067;50.710;14.492;2022-12-10T03:39:37;1.42;86.99
65470;DHT22;52067;50.710;14.492;2022-12-10T03:42:04;1.23;86.98
65470;DHT22;52067;50.710;14.492;2022-12-10T03:44:32;1.32;87.73
65470;DHT22;52067;50.710;14.492;2022-12-10T03:46:58;1.36;87.05
65470;DHT22;52067;50.710;14.492;2022-12-10T03:49:24;1.16;87.29
65470;DHT22;52067;50.710;14.492;2022-12-10T03:51:50;1.30;87.27
65470;DHT22;52067;50.710;14.492;2022-12-10T03:54:15;1.23;88.09
65470;DHT22;52067;50.710;14.492;2022-12-10T03:56:40;1.15;87.80
65470;DHT22;52067;50.710;14.492;2022-12-10T03:59:06;1.26;87.48
65470;DHT22;52067;50.710;14.492;2022-12-10T04:01:32;1.30;87.56
65470;DHT22;52067;50.710;14.492;2022-12-10T04:03:57;1.20;87.36
65470;DHT22;52067;50.710;14.492;2022-12-10T04:06:22;1.26;87.46
65470;DHT22;52067;50.710;14.492;2022-12-10T04:08:48;1.16;87.77
65470;DHT22;52067;50.710;14.492;2022-12-10T04:11:15;1.28;88.09
65470;DHT22;52067;50.710;14.492;2022-12-10T04:13:40;1.26;87.77
65470;DHT22;52067;50.710;14.492;2022-12-10T04:16:25;1.35;87.07
65470;DHT22;52067;50.710;14.492;2022-12-10T04:18:59;1.22;87.51
65470;DHT22;52067;50.710;14.492;2022-12-10T04:21:25;1.22;87.90
65470;DHT22;52067;50.710;14.492;2022-12-10T04:24:10;1.19;87.93
65470;DHT22;52067;50.710;14.492;2022-12-10T04:26:55;1.26;87.67
65470;DHT22;52067;50.710;14.492;2022-12-10T04:29:27;1.10;87.92
65470;DHT22;52067;50.710;14.492;2022-12-10T04:31:54;1.06;87.91
65470;DHT22;52067;50.710;14.492;2022-12-10T04:34:20;1.15;87.67
65470;DHT22;52067;50.710;14.492;2022-12-10T04:36:45;1.18;87.71
65470;DHT22;52067;50.710;14.492;2022-12-10T04:39:11;1.16;87.61
65470;DHT22;52067;50.710;14.492;2022-12-10T04:41:39;1.28;86.90
65470;DHT22;52067;50.710;14.492;2022-12-10T04:44:04;1.33;87.15
65470;DHT22;52067;50.710;14.492;2022-12-10T04:46:29;1.20;87.56
65470;DHT22;52067;50.710;14.492;2022-12-10T04:48:55;1.05;87.83
65470;DHT22;52067;50.710;14.492;2022-12-10T04:51:20;1.15;87.62
65470;DHT22;52067;50.710;14.492;2022-12-10T04:53:45;1.00;88.01
65470;DHT22;52067;50.710;14.492;2022-12-10T04:56:11;1.00;87.96
65470;DHT22;52067;50.710;14.492;2022-12-10T04:58:36;0.99;87.37
65470;DHT22;52067;50.710;14.492;2022-12-10T05:01:07;1.13;87.41
65470;DHT22;52067;50.710;14.492;2022-12-10T05:03:34;1.29;86.83
65470;DHT22;52067;50.710;14.492;2022-12-10T05:06:04;1.49;86.47
65470;DHT22;52067;50.710;14.492;2022-12-10T05:08:30;1.50;85.91
65470;DHT22;52067;50.710;14.492;2022-12-10T05:11:04;1.32;86.38
65470;DHT22;52067;50.710;14.492;2022-12-10T05:13:30;1.23;87.39
65470;DHT22;52067;50.710;14.492;2022-12-10T05:15:56;1.06;87.04
65470;DHT22;52067;50.710;14.492;2022-12-10T05:18:22;1.12;87.18
65470;DHT22;52067;50.710;14.492;2022-12-10T05:20:47;1.02;87.18
65470;DHT22;52067;50.710;14.492;2022-12-10T05:23:13;1.05;86.74
65470;DHT22;52067;50.710;14.492;2022-12-10T05:26:07;1.13;87.05
65470;DHT22;52067;50.710;14.492;2022-12-10T05:28:36;1.03;87.24
65470;DHT22;52067;50.710;14.492;2022-12-10T05:31:02;1.02;87.81
65470;DHT22;52067;50.710;14.492;2022-12-10T05:33:28;0.98;87.81
65470;DHT22;52067;50.710;14.492;2022-12-10T05:35:55;1.00;88.17
65470;DHT22;52067;50.710;14.492;2022-12-10T05:38:21;1.32;87.56
65470;DHT22;52067;50.710;14.492;2022-12-10T05:40:46;1.36;87.09
65470;DHT22;52067;50.710;14.492;2022-12-10T05:43:12;1.32;86.95
65470;DHT22;52067;50.710;14.492;2022-12-10T05:45:37;1.44;86.64
65470;DHT22;52067;50.710;14.492;2022-12-10T05:48:03;1.63;86.04
65470;DHT22;52067;50.710;14.492;2022-12-10T05:50:30;1.53;85.80
65470;DHT22;52067;50.710;14.492;2022-12-10T05:52:56;1.64;85.52
65470;DHT22;52067;50.710;14.492;2022-12-10T05:55:21;1.56;85.23
65470;DHT22;52067;50.710;14.492;2022-12-10T05:57:47;1.60;85.50
65470;DHT22;52067;50.710;14.492;2022-12-10T06:00:12;1.81;85.24
65470;DHT22;52067;50.710;14.492;2022-12-10T06:02:38;1.66;85.12
65470;DHT22;52067;50.710;14.492;2022-12-10T06:05:03;1.46;85.67
65470;DHT22;52067;50.710;14.492;2022-12-10T06:07:29;1.57;86.11
65470;DHT22;52067;50.710;14.492;2022-12-10T06:09:55;1.46;86.04
65470;DHT22;52067;50.710;14.492;2022-12-10T06:12:21;1.51;86.58
65470;DHT22;52067;50.710;14.492;2022-12-10T06:14:46;1.44;86.05
65470;DHT22;52067;50.710;14.492;2022-12-10T06:17:11;1.59;86.09
65470;DHT22;52067;50.710;14.492;2022-12-10T06:19:37;1.71;85.50
65470;DHT22;52067;50.710;14.492;2022-12-10T06:22:02;1.78;85.32
65470;DHT22;52067;50.710;14.492;2022-12-10T06:24:29;1.57;85.42
65470;DHT22;52067;50.710;14.492;2022-12-10T06:26:54;1.53;86.22
65470;DHT22;52067;50.710;14.492;2022-12-10T06:29:20;1.29;86.65
65470;DHT22;52067;50.710;14.492;2022-12-10T06:31:45;1.40;86.90
65470;DHT22;52067;50.710;14.492;2022-12-10T06:34:10;1.56;86.25
65470;DHT22;52067;50.710;14.492;2022-12-10T06:36:36;1.51;86.13
65470;DHT22;52067;50.710;14.492;2022-12-10T06:39:02;1.67;85.87
65470;DHT22;52067;50.710;14.492;2022-12-10T06:41:27;1.51;86.42
65470;DHT22;52067;50.710;14.492;2022-12-10T06:43:53;1.61;85.86
65470;DHT22;52067;50.710;14.492;2022-12-10T06:46:19;1.74;85.40
65470;DHT22;52067;50.710;14.492;2022-12-10T06:48:45;1.43;85.94
65470;DHT22;52067;50.710;14.492;2022-12-10T06:51:12;1.22;86.47
65470;DHT22;52067;50.710;14.492;2022-12-10T06:53:38;1.16;87.12
65470;DHT22;52067;50.710;14.492;2022-12-10T06:56:05;1.42;86.85
65470;DHT22;52067;50.710;14.492;2022-12-10T06:58:32;1.51;86.60
65470;DHT22;52067;50.710;14.492;2022-12-10T07:01:11;1.54;86.10
65470;DHT22;52067;50.710;14.492;2022-12-10T07:03:37;1.51;86.03
65470;DHT22;52067;50.710;14.492;2022-12-10T07:06:03;1.42;86.49
65470;DHT22;52067;50.710;14.492;2022-12-10T07:08:29;1.39;86.85
65470;DHT22;52067;50.710;14.492;2022-12-10T07:10:55;1.54;86.86
65470;DHT22;52067;50.710;14.492;2022-12-10T07:13:20;1.57;86.18
65470;DHT22;52067;50.710;14.492;2022-12-10T07:15:46;1.44;86.62
65470;DHT22;52067;50.710;14.492;2022-12-10T07:18:11;1.40;87.04
65470;DHT22;52067;50.710;14.492;2022-12-10T07:20:37;1.56;86.82
65470;DHT22;52067;50.710;14.492;2022-12-10T07:23:02;1.67;86.15
65470;DHT22;52067;50.710;14.492;2022-12-10T07:25:27;1.71;85.78
65470;DHT22;52067;50.710;14.492;2022-12-10T07:27:53;1.70;85.51
65470;DHT22;52067;50.710;14.492;2022-12-10T07:30:18;1.71;85.86
65470;DHT22;52067;50.710;14.492;2022-12-10T07:32:43;1.78;85.76
65470;DHT22;52067;50.710;14.492;2022-12-10T07:35:09;1.73;85.71
65470;DHT22;52067;50.710;14.492;2022-12-10T07:37:34;1.77;85.93
65470;DHT22;52067;50.710;14.492;2022-12-10T07:39:59;1.80;85.71
65470;DHT22;52067;50.710;14.492;2022-12-10T07:42:25;1.82;85.48
65470;DHT22;52067;50.710;14.492;2022-12-10T07:44:50;1.71;85.66
65470;DHT22;52067;50.710;14.492;2022-12-10T07:47:16;1.75;85.80
65470;DHT22;52067;50.710;14.492;2022-12-10T07:49:41;1.84;85.74
65470;DHT22;52067;50.710;14.492;2022-12-10T07:52:08;1.81;85.50
65470;DHT22;52067;50.710;14.492;2022-12-10T07:54:34;1.89;85.19
65470;DHT22;52067;50.710;14.492;2022-12-10T07:56:59;1.94;84.86
65470;DHT22;52067;50.710;14.492;2022-12-10T07:59:24;1.77;85.23
65470;DHT22;52067;50.710;14.492;2022-12-10T08:01:50;1.63;85.79
65470;DHT22;52067;50.710;14.492;2022-12-10T08:04:15;1.63;86.92
65470;DHT22;52067;50.710;14.492;2022-12-10T08:06:41;1.81;85.91
65470;DHT22;52067;50.710;14.492;2022-12-10T08:09:06;1.78;85.82
65470;DHT22;52067;50.710;14.492;2022-12-10T08:11:32;1.87;85.40
65470;DHT22;52067;50.710;14.492;2022-12-10T08:13:57;1.71;85.70
65470;DHT22;52067;50.710;14.492;2022-12-10T08:16:25;1.85;85.43
65470;DHT22;52067;50.710;14.492;2022-12-10T08:18:52;2.05;84.81
65470;DHT22;52067;50.710;14.492;2022-12-10T08:21:20;2.16;83.67
65470;DHT22;52067;50.710;14.492;2022-12-10T08:23:46;2.12;84.13
65470;DHT22;52067;50.710;14.492;2022-12-10T08:26:14;1.87;85.69
65470;DHT22;52067;50.710;14.492;2022-12-10T08:28:41;2.08;83.69
65470;DHT22;52067;50.710;14.492;2022-12-10T08:31:08;2.24;83.30
65470;DHT22;52067;50.710;14.492;2022-12-10T08:33:35;2.11;83.60
65470;DHT22;52067;50.710;14.492;2022-12-10T08:36:02;1.66;86.01
65470;DHT22;52067;50.710;14.492;2022-12-10T08:38:28;1.81;84.94
65470;DHT22;52067;50.710;14.492;2022-12-10T08:40:54;1.89;85.03
65470;DHT22;52067;50.710;14.492;2022-12-10T08:43:20;1.70;85.48
65470;DHT22;52067;50.710;14.492;2022-12-10T08:45:45;1.73;85.06
65470;DHT22;52067;50.710;14.492;2022-12-10T08:48:10;1.87;84.87
65470;DHT22;52067;50.710;14.492;2022-12-10T08:50:37;1.59;85.72
65470;DHT22;52067;50.710;14.492;2022-12-10T08:53:03;1.93;85.06
65470;DHT22;52067;50.710;14.492;2022-12-10T08:55:28;2.14;84.49
65470;DHT22;52067;50.710;14.492;2022-12-10T08:57:54;2.33;83.72
65470;DHT22;52067;50.710;14.492;2022-12-10T09:00:20;2.09;83.87
65470;DHT22;52067;50.710;14.492;2022-12-10T09:02:46;1.80;85.47
65470;DHT22;52067;50.710;14.492;2022-12-10T09:05:11;2.01;84.76
65470;DHT22;52067;50.710;14.492;2022-12-10T09:07:37;2.15;84.19
65470;DHT22;52067;50.710;14.492;2022-12-10T09:10:03;2.08;84.14
65470;DHT22;52067;50.710;14.492;2022-12-10T09:12:28;1.99;84.63
65470;DHT22;52067;50.710;14.492;2022-12-10T09:14:54;2.04;84.08
65470;DHT22;52067;50.710;14.492;2022-12-10T09:17:19;1.81;84.64
65470;DHT22;52067;50.710;14.492;2022-12-10T09:19:45;1.63;85.05
65470;DHT22;52067;50.710;14.492;2022-12-10T09:22:10;1.88;84.48
65470;DHT22;52067;50.710;14.492;2022-12-10T09:24:35;2.01;84.11
65470;DHT22;52067;50.710;14.492;2022-12-10T09:27:02;1.98;84.59
65470;DHT22;52067;50.710;14.492;2022-12-10T09:29:28;2.12;83.93
65470;DHT22;52067;50.710;14.492;2022-12-10T09:31:53;2.22;83.77
65470;DHT22;52067;50.710;14.492;2022-12-10T09:34:19;2.35;82.89
65470;DHT22;52067;50.710;14.492;2022-12-10T09:36:44;2.26;83.52
65470;DHT22;52067;50.710;14.492;2022-12-10T09:39:10;2.39;82.84
65470;DHT22;52067;50.710;14.492;2022-12-10T09:44:22;2.50;82.62
65470;DHT22;52067;50.710;14.492;2022-12-10T09:46:52;2.67;82.21
65470;DHT22;52067;50.710;14.492;2022-12-10T09:49:47;2.01;83.39
65470;DHT22;52067;50.710;14.492;2022-12-10T09:52:19;2.11;83.92
65470;DHT22;52067;50.710;14.492;2022-12-10T09:54:53;2.07;84.36
65470;DHT22;52067;50.710;14.492;2022-12-10T09:57:26;2.18;83.86
65470;DHT22;52067;50.710;14.492;2022-12-10T09:59:52;2.32;82.20
65470;DHT22;52067;50.710;14.492;2022-12-10T10:02:27;2.12;81.15
65470;DHT22;52067;50.710;14.492;2022-12-10T10:07:31;2.25;82.97
65470;DHT22;52067;50.710;14.492;2022-12-10T10:10:04;1.94;83.27
65470;DHT22;52067;50.710;14.492;2022-12-10T10:12:31;1.95;83.84
65470;DHT22;52067;50.710;14.492;2022-12-10T10:15:00;2.11;84.10
65470;DHT22;52067;50.710;14.492;2022-12-10T10:17:36;2.22;83.75
65470;DHT22;52067;50.710;14.492;2022-12-10T10:20:03;2.33;82.91
65470;DHT22;52067;50.710;14.492;2022-12-10T10:22:29;2.30;82.75
65470;DHT22;52067;50.710;14.492;2022-12-10T10:24:55;2.32;82.56
65470;DHT22;52067;50.710;14.492;2022-12-10T10:27:27;2.19;82.64
65470;DHT22;52067;50.710;14.492;2022-12-10T10:29:56;2.32;82.91
65470;DHT22;52067;50.710;14.492;2022-12-10T10:32:43;2.37;82.87
65470;DHT22;52067;50.710;14.492;2022-12-10T10:35:31;2.29;81.51
65470;DHT22;52067;50.710;14.492;2022-12-10T10:38:18;2.19;82.06
65470;DHT22;52067;50.710;14.492;2022-12-10T10:40:49;2.11;82.00
65470;DHT22;52067;50.710;14.492;2022-12-10T10:43:24;2.14;81.93
65470;DHT22;52067;50.710;14.492;2022-12-10T10:46:03;2.05;82.67
65470;DHT22;52067;50.710;14.492;2022-12-10T10:48:32;2.24;82.19
65470;DHT22;52067;50.710;14.492;2022-12-10T10:53:45;2.36;81.36
65470;DHT22;52067;50.710;14.492;2022-12-10T10:56:20;2.15;81.59
65470;DHT22;52067;50.710;14.492;2022-12-10T10:58:57;2.14;81.81
65470;DHT22;52067;50.710;14.492;2022-12-10T11:01:25;2.33;81.95
65470;DHT22;52067;50.710;14.492;2022-12-10T11:03:57;2.26;81.12
65470;DHT22;52067;50.710;14.492;2022-12-10T11:06:24;2.12;81.95
65470;DHT22;52067;50.710;14.492;2022-12-10T11:08:51;2.08;81.61
65470;DHT22;52067;50.710;14.492;2022-12-10T11:11:22;2.25;82.08
65470;DHT22;52067;50.710;14.492;2022-12-10T11:13:48;2.25;81.49
65470;DHT22;52067;50.710;14.492;2022-12-10T11:16:22;2.35;81.37
65470;DHT22;52067;50.710;14.492;2022-12-10T11:19:00;2.29;81.89
65470;DHT22;52067;50.710;14.492;2022-12-10T11:21:31;2.18;81.56
65470;DHT22;52067;50.710;14.492;2022-12-10T11:23:58;2.14;82.00
65470;DHT22;52067;50.710;14.492;2022-12-10T11:32:07;1.78;82.97
65470;DHT22;52067;50.710;14.492;2022-12-10T11:51:04;1.88;83.66
65470;DHT22;52067;50.710;14.492;2022-12-10T11:56:33;1.80;82.71
65470;DHT22;52067;50.710;14.492;2022-12-10T11:59:40;1.87;83.21
65470;DHT22;52067;50.710;14.492;2022-12-10T12:07:26;2.09;83.05
65470;DHT22;52067;50.710;14.492;2022-12-10T12:12:57;1.95;82.40
65470;DHT22;52067;50.710;14.492;2022-12-10T12:15:31;1.94;82.41
65470;DHT22;52067;50.710;14.492;2022-12-10T12:21:10;1.93;82.96
65470;DHT22;52067;50.710;14.492;2022-12-10T12:24:02;1.84;83.86
65470;DHT22;52067;50.710;14.492;2022-12-10T12:26:48;1.87;83.43
65470;DHT22;52067;50.710;14.492;2022-12-10T12:37:29;1.49;85.87
65470;DHT22;52067;50.710;14.492;2022-12-10T12:40:02;1.37;85.68
65470;DHT22;52067;50.710;14.492;2022-12-10T12:42:29;1.32;86.17
65470;DHT22;52067;50.710;14.492;2022-12-10T12:45:10;1.23;85.86
65470;DHT22;52067;50.710;14.492;2022-12-10T12:47:50;1.32;86.48
65470;DHT22;52067;50.710;14.492;2022-12-10T12:50:28;1.35;85.27
65470;DHT22;52067;50.710;14.492;2022-12-10T12:52:59;1.40;85.61
65470;DHT22;52067;50.710;14.492;2022-12-10T12:55:45;1.40;85.10
65470;DHT22;52067;50.710;14.492;2022-12-10T12:58:15;1.36;85.08
65470;DHT22;52067;50.710;14.492;2022-12-10T13:00:46;1.36;85.55
65470;DHT22;52067;50.710;14.492;2022-12-10T13:05:44;1.26;86.41
65470;DHT22;52067;50.710;14.492;2022-12-10T13:14:27;1.05;87.12
65470;DHT22;52067;50.710;14.492;2022-12-10T13:29:57;1.60;85.38
65470;DHT22;52067;50.710;14.492;2022-12-10T13:40:43;1.51;85.31
65470;DHT22;52067;50.710;14.492;2022-12-10T13:43:57;1.35;85.61
65470;DHT22;52067;50.710;14.492;2022-12-10T13:46:58;1.22;85.24
65470;DHT22;52067;50.710;14.492;2022-12-10T13:49:27;1.12;85.67
65470;DHT22;52067;50.710;14.492;2022-12-10T13:52:05;1.18;85.78
65470;DHT22;52067;50.710;14.492;2022-12-10T14:00:19;0.98;86.71
65470;DHT22;52067;50.710;14.492;2022-12-10T14:08:00;1.16;86.25
65470;DHT22;52067;50.710;14.492;2022-12-10T14:10:31;1.32;85.56
65470;DHT22;52067;50.710;14.492;2022-12-10T14:12:59;1.20;85.61
65470;DHT22;52067;50.710;14.492;2022-12-10T14:15:26;1.26;85.21
65470;DHT22;52067;50.710;14.492;2022-12-10T14:17:59;1.37;85.38
65470;DHT22;52067;50.710;14.492;2022-12-10T14:20:29;1.61;84.21
65470;DHT22;52067;50.710;14.492;2022-12-10T14:22:55;1.78;83.38
65470;DHT22;52067;50.710;14.492;2022-12-10T14:25:45;1.84;82.60
65470;DHT22;52067;50.710;14.492;2022-12-10T14:28:13;1.89;82.05
65470;DHT22;52067;50.710;14.492;2022-12-10T14:30:44;1.95;82.55
65470;DHT22;52067;50.710;14.492;2022-12-10T14:33:13;1.74;83.05
65470;DHT22;52067;50.710;14.492;2022-12-10T14:35:40;1.56;83.80
65470;DHT22;52067;50.710;14.492;2022-12-10T14:38:17;1.50;84.15
65470;DHT22;52067;50.710;14.492;2022-12-10T14:40:43;1.71;84.44
65470;DHT22;52067;50.710;14.492;2022-12-10T14:43:13;1.60;83.39
65470;DHT22;52067;50.710;14.492;2022-12-10T14:45:51;1.67;83.80
65470;DHT22;52067;50.710;14.492;2022-12-10T14:48:18;1.73;83.27
65470;DHT22;52067;50.710;14.492;2022-12-10T14:50:45;1.63;83.78
65470;DHT22;52067;50.710;14.492;2022-12-10T14:53:21;1.30;84.98
65470;DHT22;52067;50.710;14.492;2022-12-10T14:55:50;1.56;84.46
65470;DHT22;52067;50.710;14.492;2022-12-10T14:58:38;1.61;83.35
65470;DHT22;52067;50.710;14.492;2022-12-10T15:01:05;1.33;84.94
65470;DHT22;52067;50.710;14.492;2022-12-10T15:03:35;1.40;84.27
65470;DHT22;52067;50.710;14.492;2022-12-10T15:06:08;1.40;83.97
65470;DHT22;52067;50.710;14.492;2022-12-10T15:08:34;1.06;86.33
65470;DHT22;52067;50.710;14.492;2022-12-10T15:11:01;0.98;86.19
65470;DHT22;52067;50.710;14.492;2022-12-10T15:13:41;1.05;85.70
65470;DHT22;52067;50.710;14.492;2022-12-10T15:16:16;0.93;86.05
65470;DHT22;52067;50.710;14.492;2022-12-10T15:18:42;1.05;85.66
65470;DHT22;52067;50.710;14.492;2022-12-10T15:21:15;1.13;85.53
65470;DHT22;52067;50.710;14.492;2022-12-10T15:23:44;0.88;86.12
65470;DHT22;52067;50.710;14.492;2022-12-10T15:28:48;0.95;86.65
65470;DHT22;52067;50.710;14.492;2022-12-10T15:33:50;0.96;85.85
65470;DHT22;52067;50.710;14.492;2022-12-10T15:36:40;0.91;86.75
65470;DHT22;52067;50.710;14.492;2022-12-10T15:39:43;0.96;86.77
65470;DHT22;52067;50.710;14.492;2022-12-10T15:42:01;0.96;86.71
65470;DHT22;52067;50.710;14.492;2022-12-10T15:44:45;0.92;86.63
65470;DHT22;52067;50.710;14.492;2022-12-10T15:47:21;0.84;87.16
65470;DHT22;52067;50.710;14.492;2022-12-10T15:49:48;0.87;87.13
65470;DHT22;52067;50.710;14.492;2022-12-10T15:52:20;0.87;87.28
65470;DHT22;52067;50.710;14.492;2022-12-10T15:54:48;0.74;86.91
65470;DHT22;52067;50.710;14.492;2022-12-10T15:57:19;0.71;87.11
65470;DHT22;52067;50.710;14.492;2022-12-10T15:59:48;0.72;87.07
65470;DHT22;52067;50.710;14.492;2022-12-10T16:04:57;0.81;86.95
65470;DHT22;52067;50.710;14.492;2022-12-10T16:07:22;0.81;86.99
65470;DHT22;52067;50.710;14.492;2022-12-10T16:09:48;0.87;87.13
65470;DHT22;52067;50.710;14.492;2022-12-10T16:12:15;0.87;86.93
65470;DHT22;52067;50.710;14.492;2022-12-10T16:14:46;0.88;86.82
65470;DHT22;52067;50.710;14.492;2022-12-10T16:17:13;0.87;87.05
65470;DHT22;52067;50.710;14.492;2022-12-10T16:19:38;0.81;87.30
65470;DHT22;52067;50.710;14.492;2022-12-10T16:22:04;0.88;87.48
65470;DHT22;52067;50.710;14.492;2022-12-10T16:24:30;0.84;86.77
65470;DHT22;52067;50.710;14.492;2022-12-10T16:26:55;0.82;86.81
65470;DHT22;52067;50.710;14.492;2022-12-10T16:29:21;0.72;86.96
65470;DHT22;52067;50.710;14.492;2022-12-10T16:31:46;0.87;86.81
65470;DHT22;52067;50.710;14.492;2022-12-10T16:34:12;0.78;86.66
65470;DHT22;52067;50.710;14.492;2022-12-10T16:36:37;0.78;87.04
65470;DHT22;52067;50.710;14.492;2022-12-10T16:39:02;0.84;86.81
65470;DHT22;52067;50.710;14.492;2022-12-10T16:41:28;0.96;86.86
65470;DHT22;52067;50.710;14.492;2022-12-10T16:43:54;1.05;86.86
65470;DHT22;52067;50.710;14.492;2022-12-10T16:46:19;1.18;85.70
65470;DHT22;52067;50.710;14.492;2022-12-10T16:48:45;1.06;85.47
65470;DHT22;52067;50.710;14.492;2022-12-10T16:51:20;0.99;84.57
65470;DHT22;52067;50.710;14.492;2022-12-10T16:53:47;1.10;84.00
65470;DHT22;52067;50.710;14.492;2022-12-10T16:56:13;0.84;85.23
65470;DHT22;52067;50.710;14.492;2022-12-10T16:58:39;0.92;85.19
65470;DHT22;52067;50.710;14.492;2022-12-10T17:01:15;0.84;85.39
65470;DHT22;52067;50.710;14.492;2022-12-10T17:03:41;0.93;85.54
65470;DHT22;52067;50.710;14.492;2022-12-10T17:06:09;0.95;86.60
65470;DHT22;52067;50.710;14.492;2022-12-10T17:08:36;0.91;86.23
65470;DHT22;52067;50.710;14.492;2022-12-10T17:11:28;0.92;86.05
65470;DHT22;52067;50.710;14.492;2022-12-10T17:14:28;0.99;85.69
65470;DHT22;52067;50.710;14.492;2022-12-10T17:16:56;1.03;85.21
65470;DHT22;52067;50.710;14.492;2022-12-10T17:19:23;0.74;85.79
65470;DHT22;52067;50.710;14.492;2022-12-10T17:21:50;0.68;85.22
65470;DHT22;52067;50.710;14.492;2022-12-10T17:24:15;0.58;85.54
65470;DHT22;52067;50.710;14.492;2022-12-10T17:26:44;0.60;85.77
65470;DHT22;52067;50.710;14.492;2022-12-10T17:29:22;0.53;85.83
65470;DHT22;52067;50.710;14.492;2022-12-10T17:31:49;0.44;85.62
65470;DHT22;52067;50.710;14.492;2022-12-10T17:34:14;0.49;85.83
65470;DHT22;52067;50.710;14.492;2022-12-10T17:36:41;0.44;85.83
65470;DHT22;52067;50.710;14.492;2022-12-10T17:39:12;0.44;86.25
65470;DHT22;52067;50.710;14.492;2022-12-10T17:41:37;0.36;86.36
65470;DHT22;52067;50.710;14.492;2022-12-10T17:44:03;0.33;86.59